Time;durP1;ratioP1;P1;durP2;ratioP2;P2;SDS_P1;SDS_P2;PMS_P1;PMS_P2;Temp;Humidity;BMP_temperature;BMP_pressure;BME280_temperature;BME280_humidity;BME280_pressure;Samples;Min_cycle;Max_cycle;Signal;HPM_P1;HPM_P2
2022/12/30 00:01:19;;;;;;;0.83;0.53;;;7.80;99.90;;;;;;5073504;28;20452;-74
2022/12/30 00:03:46;;;;;;;0.80;0.57;;;7.80;99.90;;;;;;5073586;28;20489;-74
2022/12/30 00:06:16;;;;;;;0.80;0.50;;;8.00;99.90;;;;;;5073232;28;20453;-73
2022/12/30 00:08:47;;;;;;;1.80;0.80;;;8.00;99.90;;;;;;5073828;28;20488;-73
2022/12/30 00:11:15;;;;;;;1.90;1.63;;;7.90;99.90;;;;;;5072812;28;20455;-73
2022/12/30 00:33:08;;;;;;;1.13;0.70;;;7.70;99.90;;;;;;5036403;28;20942;-73
2022/12/30 00:35:35;;;;;;;1.97;0.60;;;7.70;99.90;;;;;;5073541;28;20635;-74
2022/12/30 00:38:02;;;;;;;1.23;0.70;;;7.70;99.90;;;;;;5072723;28;20460;-73
2022/12/30 00:40:29;;;;;;;0.90;0.50;;;7.70;99.90;;;;;;5073395;28;20669;-73
2022/12/30 00:43:10;;;;;;;0.90;0.50;;;7.80;99.90;;;;;;5072640;28;20967;-73
2022/12/30 00:45:41;;;;;;;0.80;0.53;;;7.80;99.90;;;;;;5073023;28;20938;-73
2022/12/30 00:56:22;;;;;;;1.30;0.70;;;7.70;99.90;;;;;;5072451;28;20891;-73
2022/12/30 00:58:48;;;;;;;1.10;0.60;;;7.60;99.90;;;;;;5073097;28;20889;-73
2022/12/30 01:01:17;;;;;;;1.00;0.60;;;7.60;99.90;;;;;;5072410;28;20462;-73
2022/12/30 01:03:43;;;;;;;0.97;0.57;;;7.70;99.90;;;;;;5072592;28;21021;-73
2022/12/30 01:06:11;;;;;;;0.80;0.63;;;7.70;99.90;;;;;;5072404;28;20475;-73
2022/12/30 01:08:38;;;;;;;2.20;0.50;;;7.80;99.90;;;;;;5072564;28;21017;-73
2022/12/30 01:11:08;;;;;;;1.03;0.60;;;7.80;99.90;;;;;;5072401;28;20465;-72
2022/12/30 01:13:35;;;;;;;1.57;0.70;;;7.60;99.90;;;;;;5072120;28;20454;-73
2022/12/30 01:16:10;;;;;;;1.00;0.70;;;7.60;99.90;;;;;;5072068;28;20493;-72
2022/12/30 01:18:38;;;;;;;1.10;0.70;;;7.60;99.90;;;;;;5072624;28;20452;-73
2022/12/30 01:21:06;;;;;;;1.00;0.70;;;7.80;99.90;;;;;;5072101;28;20442;-73
2022/12/30 01:23:34;;;;;;;0.80;0.50;;;7.80;99.90;;;;;;5071777;28;20493;-73
2022/12/30 01:26:01;;;;;;;1.77;0.77;;;7.90;99.90;;;;;;5071876;28;20958;-71
2022/12/30 01:28:32;;;;;;;0.70;0.40;;;8.00;99.90;;;;;;5072196;28;20451;-74
2022/12/30 01:30:59;;;;;;;0.70;0.50;;;8.10;99.90;;;;;;5072078;28;20928;-73
2022/12/30 01:33:26;;;;;;;0.93;0.57;;;8.10;99.90;;;;;;5072197;28;20452;-73
2022/12/30 01:35:55;;;;;;;0.80;0.60;;;8.10;99.90;;;;;;5072202;28;20475;-73
2022/12/30 01:38:22;;;;;;;3.10;0.83;;;8.00;99.90;;;;;;5071468;28;20463;-73
2022/12/30 01:40:48;;;;;;;1.00;0.60;;;7.90;99.90;;;;;;5072182;28;20822;-73
2022/12/30 01:43:17;;;;;;;0.70;0.40;;;7.80;99.90;;;;;;5071064;28;20452;-73
2022/12/30 01:45:49;;;;;;;1.30;0.90;;;7.60;99.90;;;;;;5072059;28;20444;-73
2022/12/30 01:48:23;;;;;;;2.87;0.90;;;7.50;99.90;;;;;;5071339;28;20936;-73
2022/12/30 01:50:56;;;;;;;1.37;0.77;;;7.60;99.90;;;;;;5072006;28;20823;-74
2022/12/30 01:53:26;;;;;;;0.90;0.60;;;7.50;99.90;;;;;;5071090;28;20450;-72
2022/12/30 01:55:57;;;;;;;1.00;0.73;;;7.40;99.90;;;;;;5071919;28;20452;-73
2022/12/30 01:58:29;;;;;;;1.40;0.83;;;7.20;99.90;;;;;;5071254;28;20498;-72
2022/12/30 02:00:56;;;;;;;1.70;1.00;;;7.10;99.90;;;;;;5072021;28;20440;-73
2022/12/30 02:03:24;;;;;;;0.90;0.60;;;7.10;99.90;;;;;;5070138;28;20446;-73
2022/12/30 02:05:51;;;;;;;1.07;0.60;;;7.20;99.90;;;;;;5071597;28;20447;-73
2022/12/30 02:08:21;;;;;;;0.70;0.50;;;7.20;99.90;;;;;;5070936;28;20822;-73
2022/12/30 02:10:51;;;;;;;1.37;0.80;;;7.00;99.90;;;;;;5071725;28;20438;-72
2022/12/30 02:13:19;;;;;;;1.00;0.60;;;6.90;99.90;;;;;;5070488;28;20480;-73
2022/12/30 02:16:10;;;;;;;0.80;0.50;;;6.80;99.90;;;;;;5071307;28;20454;-73
2022/12/30 02:18:49;;;;;;;0.80;0.50;;;6.80;99.90;;;;;;5062620;28;20457;-73
2022/12/30 02:21:55;;;;;;;1.20;0.70;;;6.70;99.90;;;;;;5070331;28;20444;-72
2022/12/30 02:24:55;;;;;;;0.70;0.50;;;6.80;99.90;;;;;;5070646;28;20487;-73
2022/12/30 02:27:47;;;;;;;1.77;0.90;;;7.00;99.90;;;;;;5070720;28;20448;-74
2022/12/30 02:30:20;;;;;;;1.57;0.63;;;6.80;99.90;;;;;;5061107;28;20452;-73
2022/12/30 02:33:05;;;;;;;0.83;0.50;;;6.80;99.90;;;;;;5070686;28;20440;-74
2022/12/30 02:35:42;;;;;;;1.30;0.60;;;6.80;99.90;;;;;;5071303;28;20448;-73
2022/12/30 02:38:18;;;;;;;1.00;0.60;;;6.90;99.90;;;;;;5071083;28;20807;-75
2022/12/30 02:46:30;;;;;;;1.43;0.77;;;6.90;99.90;;;;;;5059433;28;20546;-73
2022/12/30 02:49:00;;;;;;;1.00;0.60;;;6.90;99.90;;;;;;5070952;28;20448;-73
2022/12/30 02:54:13;;;;;;;1.07;0.60;;;6.70;99.90;;;;;;5070302;28;20520;-72
2022/12/30 02:56:48;;;;;;;1.00;0.70;;;6.70;99.90;;;;;;5070522;28;20443;-72
2022/12/30 03:05:12;;;;;;;1.47;0.73;;;6.70;99.90;;;;;;5070589;28;20500;-73
2022/12/30 03:07:46;;;;;;;1.00;0.83;;;6.60;99.90;;;;;;5070454;28;20472;-72
2022/12/30 03:13:08;;;;;;;0.87;0.50;;;6.30;99.90;;;;;;5069502;28;20428;-72
2022/12/30 03:15:47;;;;;;;1.20;0.60;;;6.20;99.90;;;;;;5072597;28;20800;-72
2022/12/30 03:18:15;;;;;;;0.80;0.50;;;6.10;99.90;;;;;;5073877;28;20452;-73
2022/12/30 03:20:45;;;;;;;0.93;0.80;;;6.10;99.90;;;;;;5074876;28;20451;-73
2022/12/30 03:29:00;;;;;;;1.50;0.60;;;6.20;99.90;;;;;;5012733;28;20521;-72
2022/12/30 03:31:27;;;;;;;0.70;0.40;;;6.00;99.90;;;;;;5048028;28;20460;-73
2022/12/30 03:33:54;;;;;;;0.97;0.60;;;6.00;99.90;;;;;;5074571;28;20452;-73
2022/12/30 03:36:26;;;;;;;2.70;0.70;;;5.90;99.90;;;;;;5060353;28;20462;-73
2022/12/30 03:38:58;;;;;;;0.90;0.47;;;5.70;99.90;;;;;;5074638;28;20466;-72
2022/12/30 03:41:26;;;;;;;4.50;0.70;;;5.70;99.90;;;;;;5073824;28;20446;-73
2022/12/30 03:43:54;;;;;;;0.87;0.57;;;5.80;99.90;;;;;;5074119;28;20453;-73
2022/12/30 03:46:26;;;;;;;0.80;0.47;;;5.90;99.90;;;;;;5073934;28;20460;-72
2022/12/30 03:48:53;;;;;;;0.70;0.40;;;5.70;99.90;;;;;;5074281;28;20472;-72
2022/12/30 03:51:19;;;;;;;1.00;0.60;;;5.50;99.90;;;;;;5073409;28;20468;-72
2022/12/30 03:53:48;;;;;;;0.80;0.40;;;5.50;99.90;;;;;;5073820;28;20809;-72
2022/12/30 03:56:14;;;;;;;0.80;0.63;;;5.30;99.90;;;;;;5073770;28;20445;-72
2022/12/30 03:58:41;;;;;;;0.80;0.50;;;5.30;99.90;;;;;;5073971;28;20478;-72
2022/12/30 04:01:08;;;;;;;7.23;1.00;;;5.40;99.90;;;;;;5073185;28;20478;-72
2022/12/30 04:03:36;;;;;;;1.10;0.50;;;5.50;99.90;;;;;;5074093;28;20470;-73
2022/12/30 04:06:02;;;;;;;0.80;0.50;;;5.30;99.90;;;;;;5073513;28;20508;-72
2022/12/30 04:08:29;;;;;;;1.20;0.60;;;5.20;99.90;;;;;;5073378;28;20483;-73
2022/12/30 04:10:57;;;;;;;0.77;0.50;;;5.30;99.90;;;;;;5072908;28;20447;-72
2022/12/30 04:13:24;;;;;;;1.53;0.60;;;5.20;99.90;;;;;;5072010;28;20806;-72
2022/12/30 04:15:52;;;;;;;1.63;0.70;;;5.20;99.90;;;;;;5072770;28;20457;-73
2022/12/30 04:18:19;;;;;;;1.00;0.50;;;5.10;99.90;;;;;;5072133;28;20821;-73
2022/12/30 04:20:47;;;;;;;0.80;0.53;;;5.20;99.90;;;;;;5072713;28;20452;-73
2022/12/30 04:23:14;;;;;;;0.90;0.70;;;5.30;99.90;;;;;;5071666;28;20453;-73
2022/12/30 04:25:41;;;;;;;1.30;0.70;;;5.30;99.90;;;;;;5072262;28;20507;-73
2022/12/30 04:28:09;;;;;;;0.90;0.60;;;5.20;99.90;;;;;;5071537;28;20456;-73
2022/12/30 04:30:36;;;;;;;1.00;0.77;;;5.30;99.90;;;;;;5072636;28;20457;-72
2022/12/30 04:33:03;;;;;;;0.90;0.57;;;5.40;99.90;;;;;;5071616;28;20820;-72
2022/12/30 04:35:30;;;;;;;0.80;0.50;;;5.40;99.90;;;;;;5072261;28;20957;-73
2022/12/30 04:37:57;;;;;;;0.93;0.70;;;5.20;99.90;;;;;;5059310;28;20484;-73
2022/12/30 04:40:23;;;;;;;1.33;0.70;;;5.00;99.90;;;;;;5071806;28;20462;-75
2022/12/30 04:42:50;;;;;;;1.37;0.53;;;5.00;99.90;;;;;;5071887;28;20454;-73
2022/12/30 04:45:18;;;;;;;0.80;0.50;;;5.00;99.90;;;;;;5071405;28;20484;-72
2022/12/30 04:47:45;;;;;;;0.80;0.50;;;5.00;99.90;;;;;;5059343;28;20453;-73
2022/12/30 04:50:12;;;;;;;1.00;0.50;;;5.00;99.90;;;;;;5071660;28;20462;-73
2022/12/30 04:52:39;;;;;;;0.77;0.43;;;5.10;99.90;;;;;;5071828;28;21010;-73
2022/12/30 04:55:06;;;;;;;1.07;0.60;;;5.10;99.90;;;;;;5071932;28;20478;-73
2022/12/30 04:57:33;;;;;;;1.57;1.00;;;5.30;99.90;;;;;;5072858;28;20447;-73
2022/12/30 05:00:00;;;;;;;1.30;0.70;;;5.10;99.90;;;;;;5073390;28;20941;-72
2022/12/30 05:02:28;;;;;;;1.13;0.63;;;5.10;99.90;;;;;;5073595;28;20451;-73
2022/12/30 05:04:55;;;;;;;2.70;0.70;;;5.10;99.90;;;;;;5076378;28;21028;-73
2022/12/30 05:07:22;;;;;;;0.90;0.50;;;5.10;99.90;;;;;;5079155;28;20464;-73
2022/12/30 05:09:49;;;;;;;0.70;0.40;;;5.00;99.90;;;;;;5043352;28;1067654;-72
2022/12/30 05:12:16;;;;;;;1.00;0.50;;;5.10;99.90;;;;;;5080689;28;20283;-72
2022/12/30 05:14:43;;;;;;;1.97;0.80;;;5.10;99.90;;;;;;5083548;28;20458;-72
2022/12/30 05:17:10;;;;;;;0.80;0.50;;;5.00;99.90;;;;;;5083421;28;20454;-72
2022/12/30 05:19:38;;;;;;;0.70;0.40;;;4.90;99.90;;;;;;5083825;28;20446;-75
2022/12/30 05:22:05;;;;;;;2.33;0.63;;;4.90;99.90;;;;;;5082985;28;20445;-73
2022/12/30 05:27:16;;;;;;;1.43;0.70;;;5.10;99.90;;;;;;5083839;28;20475;-73
2022/12/30 05:29:43;;;;;;;0.90;0.50;;;5.10;99.90;;;;;;5075377;28;20562;-73
2022/12/30 05:32:10;;;;;;;1.17;0.60;;;5.10;99.90;;;;;;5073118;28;20962;-73
2022/12/30 05:34:38;;;;;;;2.13;0.83;;;5.10;99.90;;;;;;5073642;28;20953;-73
2022/12/30 05:37:04;;;;;;;1.00;0.60;;;5.30;99.90;;;;;;5072432;28;20546;-73
2022/12/30 05:39:31;;;;;;;1.10;0.57;;;5.30;99.90;;;;;;5071761;28;20450;-73
2022/12/30 05:41:58;;;;;;;2.60;0.40;;;5.20;99.90;;;;;;5072097;28;20453;-73
2022/12/30 05:44:25;;;;;;;1.67;1.00;;;5.30;99.90;;;;;;5058679;28;20893;-73
2022/12/30 05:46:52;;;;;;;1.30;0.93;;;5.20;99.90;;;;;;5072239;28;20447;-73
2022/12/30 05:49:19;;;;;;;0.97;0.63;;;5.10;99.90;;;;;;5071755;28;20459;-73
2022/12/30 05:51:47;;;;;;;0.87;0.50;;;5.00;99.90;;;;;;5071614;28;20449;-73
2022/12/30 05:54:14;;;;;;;0.83;0.50;;;5.10;99.90;;;;;;5071471;28;20529;-73
2022/12/30 05:56:41;;;;;;;0.90;0.40;;;5.20;99.90;;;;;;5071846;28;20570;-73
2022/12/30 05:59:09;;;;;;;1.27;0.60;;;5.40;99.90;;;;;;5071381;28;20455;-73
2022/12/30 06:01:36;;;;;;;1.00;0.60;;;5.30;99.90;;;;;;5071643;28;20846;-73
2022/12/30 06:04:04;;;;;;;0.80;0.50;;;5.30;99.90;;;;;;5071618;28;20463;-73
2022/12/30 06:06:31;;;;;;;1.77;0.73;;;5.30;99.90;;;;;;5071518;28;20485;-73
2022/12/30 06:08:59;;;;;;;0.83;0.70;;;5.10;99.90;;;;;;5072214;28;20481;-73
2022/12/30 06:11:26;;;;;;;0.90;0.50;;;5.00;99.90;;;;;;5071555;28;20509;-73
2022/12/30 06:13:53;;;;;;;2.50;0.50;;;5.10;99.90;;;;;;5071663;28;20450;-73
2022/12/30 06:16:20;;;;;;;0.70;0.50;;;5.10;99.90;;;;;;5071031;28;20450;-73
2022/12/30 06:18:46;;;;;;;0.97;0.60;;;4.90;99.90;;;;;;5071451;28;20444;-73
2022/12/30 06:21:13;;;;;;;0.87;0.60;;;4.80;99.90;;;;;;5070581;28;20466;-73
2022/12/30 06:23:40;;;;;;;1.17;0.63;;;4.90;99.90;;;;;;5071777;28;20470;-73
2022/12/30 06:26:08;;;;;;;1.10;0.67;;;4.90;99.90;;;;;;5070885;28;20603;-73
2022/12/30 06:28:35;;;;;;;1.10;0.70;;;4.80;99.90;;;;;;5071574;28;20455;-73
2022/12/30 06:31:02;;;;;;;1.97;0.77;;;4.70;99.90;;;;;;5070739;28;20454;-73
2022/12/30 06:33:29;;;;;;;1.33;0.67;;;4.70;99.90;;;;;;5071577;28;20959;-73
2022/12/30 06:35:56;;;;;;;1.67;0.70;;;4.80;99.90;;;;;;5071658;28;20456;-73
2022/12/30 06:38:23;;;;;;;1.77;0.60;;;4.70;99.90;;;;;;5070638;28;20467;-75
2022/12/30 06:40:49;;;;;;;0.70;0.47;;;4.70;99.90;;;;;;5070639;28;20787;-73
2022/12/30 06:43:17;;;;;;;1.50;0.57;;;4.80;99.90;;;;;;5070843;28;20801;-73
2022/12/30 06:45:44;;;;;;;0.80;0.50;;;4.70;99.90;;;;;;5071296;28;20512;-73
2022/12/30 06:48:12;;;;;;;0.80;0.50;;;4.70;99.90;;;;;;5070872;28;20453;-73
2022/12/30 06:50:38;;;;;;;1.27;0.60;;;4.70;99.90;;;;;;5070983;28;20956;-73
2022/12/30 06:53:06;;;;;;;2.83;1.10;;;;;;;;;;5071102;28;20454;-72
2022/12/30 06:55:33;;;;;;;1.13;0.80;;;4.70;99.90;;;;;;5071332;28;20459;-73
2022/12/30 06:58:00;;;;;;;1.17;0.70;;;;;;;;;;5071360;28;20449;-73
2022/12/30 07:00:28;;;;;;;1.83;0.63;;;;;;;;;;5071338;28;20465;-73
2022/12/30 07:02:56;;;;;;;1.53;0.80;;;;;;;;;;5071047;28;20447;-73
2022/12/30 07:05:23;;;;;;;1.00;0.63;;;;;;;;;;5070333;28;20480;-73
2022/12/30 07:07:50;;;;;;;0.80;0.60;;;;;;;;;;5071427;28;20804;-73
2022/12/30 07:10:17;;;;;;;2.60;0.83;;;;;;;;;;5070235;28;20478;-73
2022/12/30 07:12:44;;;;;;;0.97;0.80;;;4.70;99.90;;;;;;5070689;28;20457;-73
2022/12/30 07:15:11;;;;;;;1.13;0.73;;;4.40;99.90;;;;;;5070279;28;20528;-73
2022/12/30 07:17:39;;;;;;;2.93;1.60;;;4.50;99.90;;;;;;5071279;28;20453;-73
2022/12/30 07:20:07;;;;;;;1.10;0.80;;;4.50;99.90;;;;;;5070664;28;20809;-73
2022/12/30 07:22:34;;;;;;;1.03;0.70;;;4.40;99.90;;;;;;5070647;28;20442;-73
2022/12/30 07:25:01;;;;;;;1.20;0.70;;;4.40;99.90;;;;;;5070755;28;20449;-71
2022/12/30 07:27:28;;;;;;;1.93;1.00;;;4.50;99.90;;;;;;5071036;28;20453;-73
2022/12/30 07:29:54;;;;;;;2.00;1.00;;;4.40;99.90;;;;;;5071039;28;20446;-73
2022/12/30 07:32:21;;;;;;;1.93;1.30;;;5.00;99.90;;;;;;5069875;28;20455;-73
2022/12/30 07:34:49;;;;;;;2.30;1.13;;;5.00;99.90;;;;;;5070961;28;20460;-73
2022/12/30 07:37:16;;;;;;;2.70;1.00;;;4.60;99.90;;;;;;5070104;28;20450;-73
2022/12/30 07:39:43;;;;;;;1.57;1.07;;;4.70;99.90;;;;;;5070653;28;20469;-74
2022/12/30 07:42:10;;;;;;;1.50;0.90;;;4.60;99.90;;;;;;5069965;28;20545;-73
2022/12/30 07:44:37;;;;;;;1.73;1.40;;;4.50;99.90;;;;;;5070483;28;20453;-73
2022/12/30 07:47:04;;;;;;;1.50;0.90;;;4.20;99.90;;;;;;5070189;28;20928;-73
2022/12/30 07:49:31;;;;;;;3.60;1.20;;;4.10;99.90;;;;;;5071001;28;20837;-73
2022/12/30 07:51:59;;;;;;;2.37;1.20;;;4.00;99.90;;;;;;5070453;28;20455;-73
2022/12/30 07:54:26;;;;;;;1.20;0.93;;;4.10;99.90;;;;;;5071023;28;20445;-73
2022/12/30 07:56:53;;;;;;;2.50;1.73;;;4.30;99.90;;;;;;5070680;28;20558;-73
2022/12/30 07:59:20;;;;;;;2.10;1.33;;;4.20;99.90;;;;;;5070120;28;20472;-73
2022/12/30 08:01:47;;;;;;;1.53;0.87;;;4.30;99.90;;;;;;5071968;28;20628;-73
2022/12/30 08:04:13;;;;;;;1.60;1.10;;;4.30;99.90;;;;;;5073728;28;20552;-73
2022/12/30 08:06:40;;;;;;;3.10;1.80;;;4.50;99.90;;;;;;5073743;28;20490;-73
2022/12/30 08:09:08;;;;;;;2.00;1.03;;;4.50;99.90;;;;;;5073812;28;20481;-73
2022/12/30 08:11:36;;;;;;;2.13;1.20;;;4.50;99.90;;;;;;5073446;28;20921;-73
2022/12/30 08:14:02;;;;;;;1.30;1.00;;;4.60;99.90;;;;;;5073381;28;20461;-73
2022/12/30 08:16:29;;;;;;;1.10;0.90;;;4.50;99.90;;;;;;5074313;28;20452;-74
2022/12/30 08:18:56;;;;;;;0.90;0.70;;;4.40;99.90;;;;;;5074202;28;20457;-73
2022/12/30 08:21:23;;;;;;;1.23;0.93;;;4.50;99.90;;;;;;5073118;28;20444;-73
2022/12/30 08:23:49;;;;;;;1.90;1.27;;;4.70;99.90;;;;;;5073681;28;20823;-73
2022/12/30 08:26:20;;;;;;;1.43;1.07;;;4.90;99.90;;;;;;5073044;28;20578;-73
2022/12/30 08:28:48;;;;;;;0.90;0.60;;;5.00;99.90;;;;;;5073893;28;20442;-73
2022/12/30 08:31:17;;;;;;;1.27;0.73;;;4.90;99.90;;;;;;5072528;28;20451;-73
2022/12/30 08:33:45;;;;;;;1.10;0.70;;;5.20;99.90;;;;;;5073790;28;20498;-74
2022/12/30 08:36:13;;;;;;;1.30;0.70;;;5.10;99.90;;;;;;5072867;28;20462;-73
2022/12/30 08:38:43;;;;;;;2.03;0.80;;;5.10;99.90;;;;;;5074038;28;20453;-73
2022/12/30 08:41:12;;;;;;;6.50;1.50;;;5.40;99.90;;;;;;5072667;28;20456;-73
2022/12/30 08:43:41;;;;;;;2.30;1.30;;;5.50;99.90;;;;;;5073537;28;20448;-73
2022/12/30 08:46:08;;;;;;;1.73;1.23;;;5.50;99.90;;;;;;5073020;28;20482;-73
2022/12/30 08:48:34;;;;;;;1.00;0.90;;;5.50;99.90;;;;;;5073456;28;20448;-73
2022/12/30 08:51:01;;;;;;;2.13;1.20;;;5.50;99.90;;;;;;5072322;28;20453;-72
2022/12/30 08:53:29;;;;;;;2.43;1.10;;;5.40;99.90;;;;;;5073389;28;20480;-73
2022/12/30 08:56:01;;;;;;;2.13;1.30;;;5.50;99.90;;;;;;5073873;28;20453;-74
2022/12/30 08:58:28;;;;;;;1.23;1.13;;;5.60;99.90;;;;;;5072864;28;20974;-73
2022/12/30 09:00:56;;;;;;;2.03;1.30;;;5.70;99.90;;;;;;5072830;28;20460;-74
2022/12/30 09:03:23;;;;;;;1.70;1.10;;;5.70;99.90;;;;;;5072593;28;20460;-73
2022/12/30 09:05:52;;;;;;;1.87;1.10;;;5.60;99.90;;;;;;5073220;28;20821;-74
2022/12/30 09:08:20;;;;;;;1.83;1.10;;;5.90;99.90;;;;;;5072009;28;20472;-73
2022/12/30 09:10:56;;;;;;;2.30;1.63;;;5.90;99.90;;;;;;5072504;28;21070;-74
2022/12/30 09:13:23;;;;;;;2.27;1.33;;;5.90;99.90;;;;;;5071174;28;20451;-74
2022/12/30 09:15:50;;;;;;;1.60;1.10;;;5.90;99.90;;;;;;5073106;28;20809;-74
2022/12/30 09:18:18;;;;;;;2.37;1.00;;;6.00;99.90;;;;;;5072372;28;20452;-74
2022/12/30 09:20:45;;;;;;;1.13;0.90;;;6.10;99.90;;;;;;5072137;28;20453;-74
2022/12/30 09:23:11;;;;;;;3.03;1.17;;;6.10;99.90;;;;;;5072272;28;20456;-74
2022/12/30 09:25:39;;;;;;;1.80;1.20;;;;;;;;;;5072716;28;20451;-73
2022/12/30 09:28:06;;;;;;;1.77;1.00;;;;;;;;;;5072048;28;20468;-73
2022/12/30 09:30:33;;;;;;;1.67;0.93;;;;;;;;;;5072103;28;20451;-73
2022/12/30 09:33:00;;;;;;;1.77;0.77;;;;;;;;;;5072642;28;20446;-74
2022/12/30 09:35:29;;;;;;;1.30;0.80;;;;;;;;;;5072730;28;20552;-74
2022/12/30 09:37:56;;;;;;;1.00;0.70;;;;;;;;;;5072497;28;20469;-73
2022/12/30 09:40:28;;;;;;;1.00;0.87;;;;;;;;;;5071842;28;20449;-73
2022/12/30 09:45:46;;;;;;;1.10;0.80;;;;;;;;;;5072174;28;20423;-73
2022/12/30 09:48:17;;;;;;;1.20;0.80;;;;;;;;;;5071902;28;20447;-73
2022/12/30 09:50:49;;;;;;;1.10;0.70;;;;;;;;;;5071877;28;20458;-73
2022/12/30 09:53:18;;;;;;;0.90;0.63;;;;;;;;;;5071692;28;20455;-73
2022/12/30 09:55:49;;;;;;;0.80;0.50;;;;;;;;;;5072276;28;20445;-74
2022/12/30 09:58:21;;;;;;;1.20;0.93;;;;;;;;;;5071146;28;20460;-73
2022/12/30 10:00:49;;;;;;;1.10;0.67;;;;;;;;;;5071664;28;20449;-73
2022/12/30 10:03:18;;;;;;;1.23;0.73;;;;;;;;;;5071167;28;20446;-74
2022/12/30 10:05:59;;;;;;;1.00;0.80;;;;;;;;;;5072005;28;20442;-73
2022/12/30 10:08:30;;;;;;;1.20;0.60;;;;;;;;;;5071421;28;20466;-73
2022/12/30 10:11:03;;;;;;;1.33;0.60;;;;;;;;;;5071471;28;20944;-73
2022/12/30 10:13:32;;;;;;;1.00;0.63;;;;;;;;;;5071552;28;20443;-74
2022/12/30 10:16:03;;;;;;;1.10;0.77;;;;;;;;;;5071676;28;20937;-73
2022/12/30 10:18:40;;;;;;;0.90;0.60;;;;;;;;;;5064063;28;20924;-74
2022/12/30 10:21:14;;;;;;;2.23;0.80;;;;;;;;;;5070520;28;20449;-73
2022/12/30 10:23:54;;;;;;;1.00;0.50;;;;;;;;;;5071564;28;20454;-73
2022/12/30 10:26:24;;;;;;;1.43;0.77;;;;;;;;;;5071055;28;20486;-72
2022/12/30 10:28:53;;;;;;;2.50;0.80;;;;;;;;;;5071288;28;20452;-73
2022/12/30 10:31:21;;;;;;;1.53;0.60;;;;;;;;;;5070589;28;20443;-73
2022/12/30 10:33:49;;;;;;;2.33;0.70;;;;;;;;;;5071577;28;20448;-73
2022/12/30 10:36:19;;;;;;;1.43;0.60;;;;;;;;;;5070620;28;20462;-73
2022/12/30 10:38:47;;;;;;;2.90;0.97;;;;;;;;;;5071846;28;20466;-73
2022/12/30 10:41:19;;;;;;;0.87;0.60;;;;;;;;;;5057415;28;20465;-74
2022/12/30 10:43:53;;;;;;;1.10;0.70;;;;;;;;;;5071373;28;20447;-73
2022/12/30 10:46:29;;;;;;;1.20;0.80;;;;;;;;;;5070935;28;20816;-74
2022/12/30 10:49:03;;;;;;;1.23;0.83;;;;;;;;;;5071179;28;20535;-73
2022/12/30 10:51:32;;;;;;;1.10;0.90;;;;;;;;;;5070906;28;20531;-73
2022/12/30 10:53:59;;;;;;;1.43;0.70;;;;;;;;;;5071458;28;20447;-73
2022/12/30 10:56:27;;;;;;;1.07;0.70;;;;;;;;;;5071265;28;20449;-73
2022/12/30 10:58:55;;;;;;;1.23;0.83;;;;;;;;;;5071034;28;20446;-73
2022/12/30 11:01:24;;;;;;;1.37;0.93;;;;;;;;;;5070020;28;20453;-73
2022/12/30 11:03:52;;;;;;;0.90;0.60;;;;;;;;;;5070912;28;20481;-73
2022/12/30 11:06:21;;;;;;;1.67;1.10;;;;;;;;;;5070729;28;20831;-74
2022/12/30 11:08:49;;;;;;;1.40;0.77;;;;;;;;;;5071166;28;20485;-73
2022/12/30 11:11:17;;;;;;;1.87;0.87;;;;;;;;;;5069916;28;20450;-74
2022/12/30 11:16:40;;;;;;;1.63;1.07;;;;;;;;;;5070913;28;20420;-73
2022/12/30 11:19:07;;;;;;;0.90;0.70;;;;;;;;;;5070499;28;20442;-73
2022/12/30 11:21:36;;;;;;;1.00;0.80;;;;;;;;;;5070457;28;20455;-73
2022/12/30 11:24:05;;;;;;;0.80;0.70;;;;;;;;;;5070300;28;20454;-73
2022/12/30 11:26:34;;;;;;;1.20;0.70;;;;;;;;;;5070911;28;20831;-73
2022/12/30 11:29:03;;;;;;;1.13;1.00;;;;;;;;;;5070627;28;20773;-72
2022/12/30 11:31:34;;;;;;;1.63;1.00;;;;;;;;;;5057692;28;20450;-73
2022/12/30 11:34:03;;;;;;;1.10;0.73;;;;;;;;;;5070036;28;20888;-72
2022/12/30 11:36:33;;;;;;;1.30;0.60;;;;;;;;;;5072624;28;20449;-74
2022/12/30 11:39:13;;;;;;;1.17;0.83;;;;;;;;;;5074499;28;20456;-73
2022/12/30 11:41:46;;;;;;;2.00;1.07;;;;;;;;;;5074644;28;20484;-73
2022/12/30 11:44:15;;;;;;;0.80;0.60;;;;;;;;;;5074220;28;20792;-73
2022/12/30 11:46:44;;;;;;;0.80;0.60;;;;;;;;;;5074349;28;20996;-73
2022/12/30 11:49:21;;;;;;;1.60;0.70;;;;;;;;;;5074172;28;20449;-73
2022/12/30 11:51:50;;;;;;;1.33;0.60;;;;;;;;;;5074175;28;20449;-73
2022/12/30 11:54:19;;;;;;;1.47;0.73;;;;;;;;;;5074024;28;20453;-74
2022/12/30 11:56:53;;;;;;;1.70;0.87;;;;;;;;;;5074147;28;20450;-74
2022/12/30 11:59:23;;;;;;;0.90;0.70;;;;;;;;;;5073878;28;20444;-74
2022/12/30 12:01:52;;;;;;;2.53;0.90;;;;;;;;;;5073645;28;20446;-73
2022/12/30 12:04:30;;;;;;;1.00;0.70;;;;;;;;;;5073872;28;20446;-74
2022/12/30 12:06:57;;;;;;;2.10;0.93;;;;;;;;;;5074462;28;20497;-73
2022/12/30 12:09:30;;;;;;;2.67;0.67;;;;;;;;;;5073527;28;20566;-74
2022/12/30 12:11:59;;;;;;;1.60;0.90;;;;;;;;;;5073958;28;20449;-73
2022/12/30 12:14:30;;;;;;;0.80;0.50;;;;;;;;;;5073965;28;20454;-73
2022/12/30 12:16:59;;;;;;;0.87;0.60;;;;;;;;;;5074305;28;20450;-74
2022/12/30 12:19:31;;;;;;;1.60;1.00;;;;;;;;;;5074161;28;20478;-74
2022/12/30 12:22:00;;;;;;;0.97;0.60;;;;;;;;;;5073944;28;20469;-73
2022/12/30 12:24:30;;;;;;;1.27;0.60;;;;;;;;;;5074193;28;20454;-74
2022/12/30 12:26:59;;;;;;;1.67;0.90;;;;;;;;;;5073984;28;20477;-73
2022/12/30 12:29:27;;;;;;;1.00;0.90;;;;;;;;;;5073892;28;20801;-73
2022/12/30 12:32:12;;;;;;;0.90;0.80;;;;;;;;;;5073538;28;20499;-73
2022/12/30 12:34:45;;;;;;;0.83;0.60;;;;;;;;;;5073603;28;20451;-73
2022/12/30 12:37:30;;;;;;;0.97;0.70;;;;;;;;;;5073159;28;20470;-73
2022/12/30 12:40:09;;;;;;;1.40;0.70;;;;;;;;;;5074011;28;20457;-73
2022/12/30 12:42:43;;;;;;;1.87;1.00;;;;;;;;;;5073715;28;20451;-73
2022/12/30 12:45:17;;;;;;;1.10;0.70;;;;;;;;;;5073222;28;20801;-73
2022/12/30 12:47:53;;;;;;;1.03;0.70;;;;;;;;;;5073241;28;20596;-73
2022/12/30 12:50:30;;;;;;;0.90;0.73;;;;;;;;;;5072424;28;20450;-73
2022/12/30 12:53:04;;;;;;;0.97;0.63;;;;;;;;;;5073732;28;20796;-73
2022/12/30 12:55:37;;;;;;;1.30;0.80;;;;;;;;;;5073719;28;20538;-73
2022/12/30 12:58:08;;;;;;;1.13;0.80;;;;;;;;;;5073052;28;20455;-73
2022/12/30 13:00:41;;;;;;;1.30;0.77;;;;;;;;;;5073097;28;20605;-73
2022/12/30 13:03:23;;;;;;;0.80;0.60;;;;;;;;;;5073056;28;20443;-73
2022/12/30 13:05:56;;;;;;;1.70;0.77;;;;;;;;;;5073560;28;20790;-73
2022/12/30 13:08:28;;;;;;;0.90;0.73;;;;;;;;;;5072417;28;20495;-73
2022/12/30 13:10:59;;;;;;;1.40;1.00;;;;;;;;;;5072941;28;20437;-73
2022/12/30 13:13:28;;;;;;;2.00;1.00;;;;;;;;;;5073534;28;20450;-73
2022/12/30 13:15:58;;;;;;;1.00;0.90;;;;;;;;;;5073020;28;20456;-73
2022/12/30 13:18:26;;;;;;;1.53;0.90;;;;;;;;;;5072029;28;20989;-74
2022/12/30 13:20:54;;;;;;;5.63;1.33;;;;;;;;;;5072314;28;20456;-73
2022/12/30 13:23:24;;;;;;;0.80;0.60;;;;;;;;;;5072317;28;20461;-73
2022/12/30 13:25:53;;;;;;;1.40;0.80;;;;;;;;;;5072853;28;20511;-73
2022/12/30 13:28:23;;;;;;;1.73;0.97;;;;;;;;;;5072299;28;20480;-73
2022/12/30 13:30:58;;;;;;;1.00;0.83;;;;;;;;;;5071795;28;20972;-73
2022/12/30 13:33:30;;;;;;;0.80;0.50;;;;;;;;;;5071935;28;20928;-73
2022/12/30 13:36:00;;;;;;;2.23;0.80;;;;;;;;;;5072875;28;20452;-73
2022/12/30 13:38:33;;;;;;;1.40;1.00;;;;;;;;;;5072462;28;20460;-74
2022/12/30 13:41:09;;;;;;;1.30;1.03;;;;;;;;;;5071877;28;20455;-73
2022/12/30 13:43:39;;;;;;;1.23;0.90;;;;;;;;;;5072275;28;20955;-73
2022/12/30 13:46:15;;;;;;;0.93;0.80;;;;;;;;;;5072099;28;20444;-73
2022/12/30 13:48:47;;;;;;;1.73;0.87;;;;;;;;;;5072450;28;20482;-76
2022/12/30 13:51:18;;;;;;;2.43;1.20;;;;;;;;;;5071216;28;20451;-74
2022/12/30 13:53:46;;;;;;;1.87;1.03;;;;;;;;;;5072298;28;20539;-74
2022/12/30 13:56:17;;;;;;;0.93;0.53;;;;;;;;;;5071743;28;20449;-74
2022/12/30 13:58:47;;;;;;;1.10;0.80;;;;;;;;;;5071236;28;20451;-73
2022/12/30 14:01:33;;;;;;;1.50;0.80;;;6.20;99.90;;;;;;5071328;28;20456;-73
2022/12/30 14:04:34;;;;;;;1.47;0.80;;;10.20;1.00;;;;;;5072389;28;20451;-74
2022/12/30 14:07:01;;;;;;;1.73;0.90;;;10.10;99.90;;;;;;5049429;28;20468;-72
2022/12/30 14:09:30;;;;;;;3.10;0.70;;;10.10;99.90;;;;;;5071851;28;20478;-74
2022/12/30 14:12:30;;;;;;;1.80;0.70;;;10.10;99.90;;;;;;5071759;28;20459;-74
2022/12/30 14:15:02;;;;;;;0.90;0.80;;;;;;;;;;5072070;28;20451;-74
2022/12/30 14:17:31;;;;;;;4.03;1.27;;;;;;;;;;5071880;28;20449;-74
2022/12/30 14:20:00;;;;;;;1.60;0.93;;;;;;;;;;5071942;28;20459;-73
2022/12/30 14:22:47;;;;;;;0.90;0.70;;;;;;;;;;5071946;28;20943;-76
2022/12/30 14:25:24;;;;;;;1.23;1.00;;;;;;;;;;5072142;28;20520;-72
2022/12/30 14:27:52;;;;;;;1.17;0.83;;;;;;;;;;5072339;28;20475;-73
2022/12/30 14:30:29;;;;;;;1.57;0.90;;;;;;;;;;5071633;28;20454;-73
2022/12/30 14:33:00;;;;;;;1.10;0.83;;;;;;;;;;5073066;28;20459;-73
2022/12/30 14:35:28;;;;;;;1.20;0.60;;;;;;;;;;5078282;28;20458;-73
2022/12/30 14:38:09;;;;;;;1.40;0.97;;;;;;;;;;5080227;28;20467;-72
2022/12/30 14:40:37;;;;;;;2.83;1.50;;;;;;;;;;5079216;28;20947;-73
2022/12/30 14:43:04;;;;;;;3.50;2.10;;;;;;;;;;5079368;28;20534;-72
2022/12/30 14:45:33;;;;;;;2.73;1.77;;;;;;;;;;5082129;28;20447;-71
2022/12/30 14:48:00;;;;;;;5.27;1.97;;;;;;;;;;5081292;28;20534;-72